sensor_id;sensor_type;location;lat;lon;timestamp;P1;durP1;ratioP1;P2;durP2;ratioP2
61840;SDS011;47773;53.174;6.614;2024-03-22T00:00:06;38.78;;;20.10;;
61840;SDS011;47773;53.174;6.614;2024-03-22T00:02:36;37.35;;;20.88;;
61840;SDS011;47773;53.174;6.614;2024-03-22T00:05:03;38.22;;;21.40;;
61840;SDS011;47773;53.174;6.614;2024-03-22T00:07:29;39.45;;;22.17;;
61840;SDS011;47773;53.174;6.614;2024-03-22T00:09:55;38.00;;;20.05;;
61840;SDS011;47773;53.174;6.614;2024-03-22T00:12:21;35.47;;;20.42;;
61840;SDS011;47773;53.174;6.614;2024-03-22T00:14:47;41.65;;;22.50;;
61840;SDS011;47773;53.174;6.614;2024-03-22T00:17:13;38.10;;;21.92;;
61840;SDS011;47773;53.174;6.614;2024-03-22T00:19:38;33.65;;;19.83;;
61840;SDS011;47773;53.174;6.614;2024-03-22T00:22:04;39.47;;;22.73;;
61840;SDS011;47773;53.174;6.614;2024-03-22T00:24:30;40.80;;;22.17;;
61840;SDS011;47773;53.174;6.614;2024-03-22T00:26:55;43.97;;;22.65;;
61840;SDS011;47773;53.174;6.614;2024-03-22T00:29:21;41.38;;;23.35;;
61840;SDS011;47773;53.174;6.614;2024-03-22T00:31:47;44.90;;;23.75;;
61840;SDS011;47773;53.174;6.614;2024-03-22T00:34:13;40.40;;;23.42;;
61840;SDS011;47773;53.174;6.614;2024-03-22T00:36:38;44.35;;;25.02;;
61840;SDS011;47773;53.174;6.614;2024-03-22T00:39:04;44.85;;;24.88;;
61840;SDS011;47773;53.174;6.614;2024-03-22T00:41:30;46.42;;;24.83;;
61840;SDS011;47773;53.174;6.614;2024-03-22T00:43:56;46.38;;;24.67;;
61840;SDS011;47773;53.174;6.614;2024-03-22T00:46:23;47.17;;;27.00;;
61840;SDS011;47773;53.174;6.614;2024-03-22T00:48:49;45.70;;;25.58;;
61840;SDS011;47773;53.174;6.614;2024-03-22T00:51:14;48.42;;;26.17;;
61840;SDS011;47773;53.174;6.614;2024-03-22T00:53:40;54.80;;;27.02;;
61840;SDS011;47773;53.174;6.614;2024-03-22T00:56:06;53.35;;;27.02;;
61840;SDS011;47773;53.174;6.614;2024-03-22T00:58:31;56.80;;;27.58;;
61840;SDS011;47773;53.174;6.614;2024-03-22T01:00:58;49.33;;;26.38;;
61840;SDS011;47773;53.174;6.614;2024-03-22T01:03:23;49.85;;;26.20;;
61840;SDS011;47773;53.174;6.614;2024-03-22T01:05:49;55.85;;;26.40;;
61840;SDS011;47773;53.174;6.614;2024-03-22T01:08:15;61.70;;;28.45;;
61840;SDS011;47773;53.174;6.614;2024-03-22T01:10:41;60.42;;;28.17;;
61840;SDS011;47773;53.174;6.614;2024-03-22T01:13:06;55.38;;;27.27;;
61840;SDS011;47773;53.174;6.614;2024-03-22T01:15:32;53.78;;;29.00;;
61840;SDS011;47773;53.174;6.614;2024-03-22T01:17:58;52.70;;;28.45;;
61840;SDS011;47773;53.174;6.614;2024-03-22T01:20:24;57.85;;;31.02;;
61840;SDS011;47773;53.174;6.614;2024-03-22T01:22:49;52.78;;;27.10;;
61840;SDS011;47773;53.174;6.614;2024-03-22T01:25:15;57.25;;;29.65;;
61840;SDS011;47773;53.174;6.614;2024-03-22T01:27:40;59.97;;;30.88;;
61840;SDS011;47773;53.174;6.614;2024-03-22T01:30:06;59.20;;;30.00;;
61840;SDS011;47773;53.174;6.614;2024-03-22T01:32:33;61.45;;;30.30;;
61840;SDS011;47773;53.174;6.614;2024-03-22T01:34:59;62.72;;;29.73;;
61840;SDS011;47773;53.174;6.614;2024-03-22T01:37:25;58.90;;;30.40;;
61840;SDS011;47773;53.174;6.614;2024-03-22T01:39:50;60.15;;;30.60;;
61840;SDS011;47773;53.174;6.614;2024-03-22T01:42:16;60.30;;;31.08;;
61840;SDS011;47773;53.174;6.614;2024-03-22T01:44:42;60.88;;;32.05;;
61840;SDS011;47773;53.174;6.614;2024-03-22T01:47:07;56.78;;;28.48;;
61840;SDS011;47773;53.174;6.614;2024-03-22T01:49:33;70.57;;;34.30;;
61840;SDS011;47773;53.174;6.614;2024-03-22T01:51:59;68.80;;;31.90;;
61840;SDS011;47773;53.174;6.614;2024-03-22T01:54:25;60.05;;;29.90;;
61840;SDS011;47773;53.174;6.614;2024-03-22T01:56:51;68.72;;;33.42;;
61840;SDS011;47773;53.174;6.614;2024-03-22T01:59:17;68.75;;;32.80;;
61840;SDS011;47773;53.174;6.614;2024-03-22T02:01:43;65.63;;;30.45;;
61840;SDS011;47773;53.174;6.614;2024-03-22T02:04:09;66.35;;;33.42;;
61840;SDS011;47773;53.174;6.614;2024-03-22T02:06:35;71.03;;;32.22;;
61840;SDS011;47773;53.174;6.614;2024-03-22T02:09:00;66.40;;;33.10;;
61840;SDS011;47773;53.174;6.614;2024-03-22T02:11:26;66.57;;;32.05;;
61840;SDS011;47773;53.174;6.614;2024-03-22T02:13:52;67.80;;;33.40;;
61840;SDS011;47773;53.174;6.614;2024-03-22T02:16:18;74.65;;;33.70;;
61840;SDS011;47773;53.174;6.614;2024-03-22T02:18:43;68.18;;;32.35;;
61840;SDS011;47773;53.174;6.614;2024-03-22T02:21:09;70.60;;;32.47;;
61840;SDS011;47773;53.174;6.614;2024-03-22T02:23:36;69.53;;;33.13;;
61840;SDS011;47773;53.174;6.614;2024-03-22T02:26:03;77.10;;;36.33;;
61840;SDS011;47773;53.174;6.614;2024-03-22T02:28:33;74.50;;;35.70;;
61840;SDS011;47773;53.174;6.614;2024-03-22T02:30:59;75.20;;;34.45;;
61840;SDS011;47773;53.174;6.614;2024-03-22T02:33:25;84.72;;;35.05;;
61840;SDS011;47773;53.174;6.614;2024-03-22T02:35:51;83.20;;;37.45;;
61840;SDS011;47773;53.174;6.614;2024-03-22T02:38:17;73.60;;;35.13;;
61840;SDS011;47773;53.174;6.614;2024-03-22T02:40:43;86.00;;;38.13;;
61840;SDS011;47773;53.174;6.614;2024-03-22T02:43:10;84.60;;;37.90;;
61840;SDS011;47773;53.174;6.614;2024-03-22T02:45:36;89.05;;;37.28;;
61840;SDS011;47773;53.174;6.614;2024-03-22T02:48:02;81.47;;;36.53;;
61840;SDS011;47773;53.174;6.614;2024-03-22T02:50:31;88.03;;;38.20;;
61840;SDS011;47773;53.174;6.614;2024-03-22T02:53:01;93.55;;;38.10;;
61840;SDS011;47773;53.174;6.614;2024-03-22T02:55:27;79.88;;;36.42;;
61840;SDS011;47773;53.174;6.614;2024-03-22T02:57:53;86.68;;;37.03;;
61840;SDS011;47773;53.174;6.614;2024-03-22T03:00:19;88.38;;;38.40;;
61840;SDS011;47773;53.174;6.614;2024-03-22T03:02:45;81.82;;;36.83;;
61840;SDS011;47773;53.174;6.614;2024-03-22T03:05:11;89.85;;;39.47;;
61840;SDS011;47773;53.174;6.614;2024-03-22T03:07:36;95.22;;;39.20;;
61840;SDS011;47773;53.174;6.614;2024-03-22T03:10:02;94.72;;;37.20;;
61840;SDS011;47773;53.174;6.614;2024-03-22T03:12:28;89.53;;;36.80;;
61840;SDS011;47773;53.174;6.614;2024-03-22T03:14:53;106.88;;;40.72;;
61840;SDS011;47773;53.174;6.614;2024-03-22T03:17:19;99.32;;;41.25;;
61840;SDS011;47773;53.174;6.614;2024-03-22T03:19:45;99.40;;;40.45;;
61840;SDS011;47773;53.174;6.614;2024-03-22T03:22:10;98.53;;;41.50;;
61840;SDS011;47773;53.174;6.614;2024-03-22T03:24:36;101.43;;;39.42;;
61840;SDS011;47773;53.174;6.614;2024-03-22T03:27:01;104.47;;;40.28;;
61840;SDS011;47773;53.174;6.614;2024-03-22T03:29:28;102.85;;;38.67;;
61840;SDS011;47773;53.174;6.614;2024-03-22T03:31:53;100.65;;;39.25;;
61840;SDS011;47773;53.174;6.614;2024-03-22T03:34:19;95.03;;;39.08;;
61840;SDS011;47773;53.174;6.614;2024-03-22T03:36:45;108.53;;;41.13;;
61840;SDS011;47773;53.174;6.614;2024-03-22T03:39:11;128.15;;;42.10;;
61840;SDS011;47773;53.174;6.614;2024-03-22T03:41:37;113.03;;;43.75;;
61840;SDS011;47773;53.174;6.614;2024-03-22T03:44:03;106.82;;;39.97;;
61840;SDS011;47773;53.174;6.614;2024-03-22T03:46:28;108.28;;;40.88;;
61840;SDS011;47773;53.174;6.614;2024-03-22T03:48:54;98.25;;;39.40;;
61840;SDS011;47773;53.174;6.614;2024-03-22T03:51:20;115.50;;;42.40;;
61840;SDS011;47773;53.174;6.614;2024-03-22T03:53:45;114.95;;;42.63;;
61840;SDS011;47773;53.174;6.614;2024-03-22T03:56:11;119.90;;;40.88;;
61840;SDS011;47773;53.174;6.614;2024-03-22T03:58:36;115.72;;;42.22;;
61840;SDS011;47773;53.174;6.614;2024-03-22T04:01:08;99.65;;;38.67;;
61840;SDS011;47773;53.174;6.614;2024-03-22T04:03:34;110.38;;;41.05;;
61840;SDS011;47773;53.174;6.614;2024-03-22T04:06:01;110.20;;;39.53;;
61840;SDS011;47773;53.174;6.614;2024-03-22T04:08:27;115.85;;;39.53;;
61840;SDS011;47773;53.174;6.614;2024-03-22T04:10:53;113.80;;;42.72;;
61840;SDS011;47773;53.174;6.614;2024-03-22T04:13:21;108.75;;;38.72;;
61840;SDS011;47773;53.174;6.614;2024-03-22T04:15:49;110.45;;;40.53;;
61840;SDS011;47773;53.174;6.614;2024-03-22T04:18:15;129.68;;;42.55;;
61840;SDS011;47773;53.174;6.614;2024-03-22T04:20:41;114.70;;;40.58;;
61840;SDS011;47773;53.174;6.614;2024-03-22T04:23:06;128.27;;;43.13;;
61840;SDS011;47773;53.174;6.614;2024-03-22T04:25:32;124.85;;;41.00;;
61840;SDS011;47773;53.174;6.614;2024-03-22T04:27:57;116.40;;;40.75;;
61840;SDS011;47773;53.174;6.614;2024-03-22T04:30:23;114.35;;;38.90;;
61840;SDS011;47773;53.174;6.614;2024-03-22T04:32:49;108.90;;;38.92;;
61840;SDS011;47773;53.174;6.614;2024-03-22T04:35:14;105.13;;;39.38;;
61840;SDS011;47773;53.174;6.614;2024-03-22T04:37:40;116.20;;;41.33;;
61840;SDS011;47773;53.174;6.614;2024-03-22T04:40:06;117.53;;;41.53;;
61840;SDS011;47773;53.174;6.614;2024-03-22T04:42:32;117.38;;;42.08;;
61840;SDS011;47773;53.174;6.614;2024-03-22T04:44:57;108.90;;;39.47;;
61840;SDS011;47773;53.174;6.614;2024-03-22T04:47:23;125.63;;;41.88;;
61840;SDS011;47773;53.174;6.614;2024-03-22T04:49:49;107.40;;;38.95;;
61840;SDS011;47773;53.174;6.614;2024-03-22T04:52:14;114.82;;;38.92;;
61840;SDS011;47773;53.174;6.614;2024-03-22T04:54:40;111.47;;;40.53;;
61840;SDS011;47773;53.174;6.614;2024-03-22T04:57:06;109.38;;;38.13;;
61840;SDS011;47773;53.174;6.614;2024-03-22T04:59:31;106.07;;;38.03;;
61840;SDS011;47773;53.174;6.614;2024-03-22T05:01:57;101.50;;;36.83;;
61840;SDS011;47773;53.174;6.614;2024-03-22T05:04:23;97.10;;;35.45;;
61840;SDS011;47773;53.174;6.614;2024-03-22T05:06:49;99.90;;;38.30;;
61840;SDS011;47773;53.174;6.614;2024-03-22T05:09:14;102.47;;;39.13;;
61840;SDS011;47773;53.174;6.614;2024-03-22T05:11:40;104.03;;;39.13;;
61840;SDS011;47773;53.174;6.614;2024-03-22T05:14:06;91.30;;;37.25;;
61840;SDS011;47773;53.174;6.614;2024-03-22T05:16:32;102.47;;;37.15;;
61840;SDS011;47773;53.174;6.614;2024-03-22T05:18:58;101.70;;;38.33;;
61840;SDS011;47773;53.174;6.614;2024-03-22T05:21:24;98.82;;;37.78;;
61840;SDS011;47773;53.174;6.614;2024-03-22T05:23:49;98.65;;;35.13;;
61840;SDS011;47773;53.174;6.614;2024-03-22T05:26:15;103.22;;;38.90;;
61840;SDS011;47773;53.174;6.614;2024-03-22T05:28:40;93.65;;;37.50;;
61840;SDS011;47773;53.174;6.614;2024-03-22T05:31:06;99.07;;;37.00;;
61840;SDS011;47773;53.174;6.614;2024-03-22T05:33:32;102.65;;;37.75;;
61840;SDS011;47773;53.174;6.614;2024-03-22T05:35:57;96.47;;;37.50;;
61840;SDS011;47773;53.174;6.614;2024-03-22T05:38:24;103.57;;;36.03;;
61840;SDS011;47773;53.174;6.614;2024-03-22T05:40:49;100.47;;;37.88;;
61840;SDS011;47773;53.174;6.614;2024-03-22T05:43:15;96.07;;;33.85;;
61840;SDS011;47773;53.174;6.614;2024-03-22T05:45:41;95.47;;;37.40;;
61840;SDS011;47773;53.174;6.614;2024-03-22T05:48:07;95.88;;;33.38;;
61840;SDS011;47773;53.174;6.614;2024-03-22T05:50:32;92.72;;;32.80;;
61840;SDS011;47773;53.174;6.614;2024-03-22T05:52:58;88.57;;;33.53;;
61840;SDS011;47773;53.174;6.614;2024-03-22T05:55:24;84.00;;;31.88;;
61840;SDS011;47773;53.174;6.614;2024-03-22T05:57:52;79.28;;;30.50;;
61840;SDS011;47773;53.174;6.614;2024-03-22T06:00:18;81.68;;;32.42;;
61840;SDS011;47773;53.174;6.614;2024-03-22T06:02:43;91.55;;;32.25;;
61840;SDS011;47773;53.174;6.614;2024-03-22T06:05:09;81.03;;;30.90;;
61840;SDS011;47773;53.174;6.614;2024-03-22T06:07:35;75.90;;;30.17;;
61840;SDS011;47773;53.174;6.614;2024-03-22T06:10:06;75.27;;;28.70;;
61840;SDS011;47773;53.174;6.614;2024-03-22T06:12:33;65.50;;;27.38;;
61840;SDS011;47773;53.174;6.614;2024-03-22T06:14:59;64.80;;;26.83;;
61840;SDS011;47773;53.174;6.614;2024-03-22T06:17:24;63.97;;;25.40;;
61840;SDS011;47773;53.174;6.614;2024-03-22T06:19:50;58.58;;;24.40;;
61840;SDS011;47773;53.174;6.614;2024-03-22T06:22:16;77.90;;;28.67;;
61840;SDS011;47773;53.174;6.614;2024-03-22T06:24:41;69.28;;;26.00;;
61840;SDS011;47773;53.174;6.614;2024-03-22T06:27:09;72.75;;;28.85;;
61840;SDS011;47773;53.174;6.614;2024-03-22T06:29:35;68.20;;;25.17;;
61840;SDS011;47773;53.174;6.614;2024-03-22T06:32:00;66.45;;;26.08;;
61840;SDS011;47773;53.174;6.614;2024-03-22T06:34:26;59.65;;;24.45;;
61840;SDS011;47773;53.174;6.614;2024-03-22T06:36:51;70.40;;;25.83;;
61840;SDS011;47773;53.174;6.614;2024-03-22T06:39:17;67.93;;;25.35;;
61840;SDS011;47773;53.174;6.614;2024-03-22T06:41:43;71.53;;;23.95;;
61840;SDS011;47773;53.174;6.614;2024-03-22T06:44:09;68.70;;;26.98;;
61840;SDS011;47773;53.174;6.614;2024-03-22T06:46:37;68.90;;;25.90;;
61840;SDS011;47773;53.174;6.614;2024-03-22T06:49:03;63.70;;;25.55;;
61840;SDS011;47773;53.174;6.614;2024-03-22T06:51:28;71.72;;;26.67;;
61840;SDS011;47773;53.174;6.614;2024-03-22T06:53:54;60.42;;;23.40;;
61840;SDS011;47773;53.174;6.614;2024-03-22T06:56:20;65.85;;;25.55;;
61840;SDS011;47773;53.174;6.614;2024-03-22T06:58:46;66.60;;;25.23;;
61840;SDS011;47773;53.174;6.614;2024-03-22T07:01:11;58.83;;;23.05;;
61840;SDS011;47773;53.174;6.614;2024-03-22T07:03:37;70.32;;;25.27;;
61840;SDS011;47773;53.174;6.614;2024-03-22T07:06:03;64.20;;;23.40;;
61840;SDS011;47773;53.174;6.614;2024-03-22T07:08:30;74.85;;;25.05;;
61840;SDS011;47773;53.174;6.614;2024-03-22T07:10:56;63.22;;;23.30;;
61840;SDS011;47773;53.174;6.614;2024-03-22T07:13:22;59.88;;;23.23;;
61840;SDS011;47773;53.174;6.614;2024-03-22T07:15:48;68.45;;;22.75;;
61840;SDS011;47773;53.174;6.614;2024-03-22T07:18:14;54.08;;;21.15;;
61840;SDS011;47773;53.174;6.614;2024-03-22T07:20:42;58.17;;;22.77;;
61840;SDS011;47773;53.174;6.614;2024-03-22T07:23:10;62.50;;;21.48;;
61840;SDS011;47773;53.174;6.614;2024-03-22T07:25:35;56.55;;;20.95;;
61840;SDS011;47773;53.174;6.614;2024-03-22T07:28:01;49.83;;;19.65;;
61840;SDS011;47773;53.174;6.614;2024-03-22T07:30:27;54.95;;;21.08;;
61840;SDS011;47773;53.174;6.614;2024-03-22T07:32:52;55.42;;;19.42;;
61840;SDS011;47773;53.174;6.614;2024-03-22T07:35:18;59.30;;;20.67;;
61840;SDS011;47773;53.174;6.614;2024-03-22T07:37:44;56.53;;;20.75;;
61840;SDS011;47773;53.174;6.614;2024-03-22T07:40:10;53.97;;;20.23;;
61840;SDS011;47773;53.174;6.614;2024-03-22T07:42:35;49.42;;;18.52;;
61840;SDS011;47773;53.174;6.614;2024-03-22T07:45:01;42.83;;;18.08;;
61840;SDS011;47773;53.174;6.614;2024-03-22T07:47:27;48.75;;;18.77;;
61840;SDS011;47773;53.174;6.614;2024-03-22T07:49:53;43.80;;;18.17;;
61840;SDS011;47773;53.174;6.614;2024-03-22T07:52:19;43.67;;;19.15;;
61840;SDS011;47773;53.174;6.614;2024-03-22T07:54:45;51.60;;;17.95;;
61840;SDS011;47773;53.174;6.614;2024-03-22T07:57:10;60.63;;;19.92;;
61840;SDS011;47773;53.174;6.614;2024-03-22T07:59:36;47.97;;;17.17;;
61840;SDS011;47773;53.174;6.614;2024-03-22T08:02:02;45.97;;;18.88;;
61840;SDS011;47773;53.174;6.614;2024-03-22T08:04:28;54.08;;;19.25;;
61840;SDS011;47773;53.174;6.614;2024-03-22T08:06:54;43.63;;;18.95;;
61840;SDS011;47773;53.174;6.614;2024-03-22T08:09:20;42.92;;;18.52;;
61840;SDS011;47773;53.174;6.614;2024-03-22T08:11:45;46.45;;;17.30;;
61840;SDS011;47773;53.174;6.614;2024-03-22T08:14:11;43.50;;;16.73;;
61840;SDS011;47773;53.174;6.614;2024-03-22T08:16:37;55.05;;;17.92;;
61840;SDS011;47773;53.174;6.614;2024-03-22T08:19:03;41.05;;;16.95;;
61840;SDS011;47773;53.174;6.614;2024-03-22T08:21:28;42.33;;;17.10;;
61840;SDS011;47773;53.174;6.614;2024-03-22T08:23:54;42.90;;;16.30;;
61840;SDS011;47773;53.174;6.614;2024-03-22T08:26:20;40.65;;;16.38;;
61840;SDS011;47773;53.174;6.614;2024-03-22T08:28:46;42.88;;;17.13;;
61840;SDS011;47773;53.174;6.614;2024-03-22T08:31:12;46.65;;;16.27;;
61840;SDS011;47773;53.174;6.614;2024-03-22T08:33:38;39.55;;;16.00;;
61840;SDS011;47773;53.174;6.614;2024-03-22T08:36:03;38.88;;;15.90;;
61840;SDS011;47773;53.174;6.614;2024-03-22T08:38:29;37.90;;;16.33;;
61840;SDS011;47773;53.174;6.614;2024-03-22T08:40:55;36.97;;;15.40;;
61840;SDS011;47773;53.174;6.614;2024-03-22T08:43:21;34.47;;;14.27;;
61840;SDS011;47773;53.174;6.614;2024-03-22T08:45:54;32.05;;;13.95;;
61840;SDS011;47773;53.174;6.614;2024-03-22T08:48:21;31.05;;;14.00;;
61840;SDS011;47773;53.174;6.614;2024-03-22T08:50:46;31.38;;;13.00;;
61840;SDS011;47773;53.174;6.614;2024-03-22T08:53:12;28.75;;;12.73;;
61840;SDS011;47773;53.174;6.614;2024-03-22T08:55:37;26.13;;;11.77;;
61840;SDS011;47773;53.174;6.614;2024-03-22T08:58:03;28.52;;;11.93;;
61840;SDS011;47773;53.174;6.614;2024-03-22T09:00:30;27.73;;;11.82;;
61840;SDS011;47773;53.174;6.614;2024-03-22T09:02:55;25.27;;;10.80;;
61840;SDS011;47773;53.174;6.614;2024-03-22T09:05:21;28.48;;;11.82;;
61840;SDS011;47773;53.174;6.614;2024-03-22T09:07:47;21.23;;;10.02;;
61840;SDS011;47773;53.174;6.614;2024-03-22T09:10:13;21.60;;;10.18;;
61840;SDS011;47773;53.174;6.614;2024-03-22T09:12:39;19.98;;;9.13;;
61840;SDS011;47773;53.174;6.614;2024-03-22T09:15:05;19.30;;;9.05;;
61840;SDS011;47773;53.174;6.614;2024-03-22T09:17:32;19.92;;;8.55;;
61840;SDS011;47773;53.174;6.614;2024-03-22T09:19:58;18.52;;;8.77;;
61840;SDS011;47773;53.174;6.614;2024-03-22T09:22:23;20.88;;;7.82;;
61840;SDS011;47773;53.174;6.614;2024-03-22T09:24:49;17.60;;;8.27;;
61840;SDS011;47773;53.174;6.614;2024-03-22T09:27:15;18.48;;;8.90;;
61840;SDS011;47773;53.174;6.614;2024-03-22T09:29:41;17.70;;;8.48;;
61840;SDS011;47773;53.174;6.614;2024-03-22T09:32:08;16.65;;;8.60;;
61840;SDS011;47773;53.174;6.614;2024-03-22T09:34:34;14.43;;;6.97;;
61840;SDS011;47773;53.174;6.614;2024-03-22T09:37:00;17.02;;;8.23;;
61840;SDS011;47773;53.174;6.614;2024-03-22T09:39:25;17.25;;;7.72;;
61840;SDS011;47773;53.174;6.614;2024-03-22T09:41:52;15.35;;;7.45;;
61840;SDS011;47773;53.174;6.614;2024-03-22T09:44:21;17.25;;;7.97;;
61840;SDS011;47773;53.174;6.614;2024-03-22T09:46:50;14.88;;;7.13;;
61840;SDS011;47773;53.174;6.614;2024-03-22T09:49:16;17.48;;;7.85;;
61840;SDS011;47773;53.174;6.614;2024-03-22T09:51:43;19.05;;;8.18;;
61840;SDS011;47773;53.174;6.614;2024-03-22T09:54:09;17.05;;;7.97;;
61840;SDS011;47773;53.174;6.614;2024-03-22T09:56:35;14.65;;;7.53;;
61840;SDS011;47773;53.174;6.614;2024-03-22T09:59:03;18.27;;;8.27;;
61840;SDS011;47773;53.174;6.614;2024-03-22T10:01:29;15.90;;;8.38;;
61840;SDS011;47773;53.174;6.614;2024-03-22T10:03:56;16.33;;;8.10;;
61840;SDS011;47773;53.174;6.614;2024-03-22T10:06:22;16.35;;;7.65;;
61840;SDS011;47773;53.174;6.614;2024-03-22T10:08:48;17.25;;;8.30;;
61840;SDS011;47773;53.174;6.614;2024-03-22T10:11:13;16.20;;;7.88;;
61840;SDS011;47773;53.174;6.614;2024-03-22T10:13:39;15.13;;;6.97;;
61840;SDS011;47773;53.174;6.614;2024-03-22T10:16:05;13.80;;;7.00;;
61840;SDS011;47773;53.174;6.614;2024-03-22T10:18:34;15.57;;;7.80;;
61840;SDS011;47773;53.174;6.614;2024-03-22T10:21:00;18.17;;;7.70;;
61840;SDS011;47773;53.174;6.614;2024-03-22T10:23:29;13.10;;;6.60;;
61840;SDS011;47773;53.174;6.614;2024-03-22T10:25:56;11.50;;;6.47;;
61840;SDS011;47773;53.174;6.614;2024-03-22T10:28:23;14.27;;;7.00;;
61840;SDS011;47773;53.174;6.614;2024-03-22T10:30:52;15.05;;;6.28;;
61840;SDS011;47773;53.174;6.614;2024-03-22T10:33:19;13.60;;;6.32;;
61840;SDS011;47773;53.174;6.614;2024-03-22T10:35:47;13.13;;;6.03;;
61840;SDS011;47773;53.174;6.614;2024-03-22T10:38:16;13.30;;;6.15;;
61840;SDS011;47773;53.174;6.614;2024-03-22T10:40:44;11.77;;;6.07;;
61840;SDS011;47773;53.174;6.614;2024-03-22T10:43:11;15.23;;;5.53;;
61840;SDS011;47773;53.174;6.614;2024-03-22T10:45:38;10.75;;;5.22;;
61840;SDS011;47773;53.174;6.614;2024-03-22T10:48:08;10.88;;;5.10;;
61840;SDS011;47773;53.174;6.614;2024-03-22T10:50:35;10.70;;;5.50;;
61840;SDS011;47773;53.174;6.614;2024-03-22T10:53:04;10.55;;;5.10;;
61840;SDS011;47773;53.174;6.614;2024-03-22T10:55:34;11.20;;;5.45;;
61840;SDS011;47773;53.174;6.614;2024-03-22T10:58:02;8.68;;;4.38;;
61840;SDS011;47773;53.174;6.614;2024-03-22T11:00:32;12.23;;;4.72;;
61840;SDS011;47773;53.174;6.614;2024-03-22T11:02:59;10.40;;;4.82;;
61840;SDS011;47773;53.174;6.614;2024-03-22T11:05:27;13.60;;;5.45;;
61840;SDS011;47773;53.174;6.614;2024-03-22T11:08:03;15.35;;;5.15;;
61840;SDS011;47773;53.174;6.614;2024-03-22T11:10:39;11.90;;;5.53;;
61840;SDS011;47773;53.174;6.614;2024-03-22T11:13:05;10.55;;;5.18;;
61840;SDS011;47773;53.174;6.614;2024-03-22T11:15:32;12.05;;;4.65;;
61840;SDS011;47773;53.174;6.614;2024-03-22T11:17:59;10.40;;;4.70;;
61840;SDS011;47773;53.174;6.614;2024-03-22T11:20:28;11.77;;;5.45;;
61840;SDS011;47773;53.174;6.614;2024-03-22T11:22:55;12.50;;;5.45;;
61840;SDS011;47773;53.174;6.614;2024-03-22T11:25:21;8.30;;;4.25;;
61840;SDS011;47773;53.174;6.614;2024-03-22T11:27:47;11.07;;;4.07;;
61840;SDS011;47773;53.174;6.614;2024-03-22T11:30:12;9.65;;;3.85;;
61840;SDS011;47773;53.174;6.614;2024-03-22T11:32:39;6.78;;;3.58;;
61840;SDS011;47773;53.174;6.614;2024-03-22T11:35:12;9.07;;;3.73;;
61840;SDS011;47773;53.174;6.614;2024-03-22T11:37:38;11.60;;;4.00;;
61840;SDS011;47773;53.174;6.614;2024-03-22T11:40:05;7.45;;;3.80;;
61840;SDS011;47773;53.174;6.614;2024-03-22T11:42:33;6.78;;;3.40;;
61840;SDS011;47773;53.174;6.614;2024-03-22T11:45:00;7.75;;;3.90;;
61840;SDS011;47773;53.174;6.614;2024-03-22T11:47:27;5.57;;;2.70;;
61840;SDS011;47773;53.174;6.614;2024-03-22T11:49:53;6.22;;;2.92;;
61840;SDS011;47773;53.174;6.614;2024-03-22T11:52:27;6.90;;;2.80;;
61840;SDS011;47773;53.174;6.614;2024-03-22T11:54:53;8.35;;;2.40;;
61840;SDS011;47773;53.174;6.614;2024-03-22T11:57:22;4.47;;;2.33;;
61840;SDS011;47773;53.174;6.614;2024-03-22T11:59:48;9.30;;;3.08;;
61840;SDS011;47773;53.174;6.614;2024-03-22T12:02:14;7.10;;;2.13;;
61840;SDS011;47773;53.174;6.614;2024-03-22T12:04:46;8.63;;;2.35;;
61840;SDS011;47773;53.174;6.614;2024-03-22T12:07:13;8.90;;;2.70;;
61840;SDS011;47773;53.174;6.614;2024-03-22T12:09:40;9.13;;;2.70;;
61840;SDS011;47773;53.174;6.614;2024-03-22T12:12:07;8.65;;;2.35;;
61840;SDS011;47773;53.174;6.614;2024-03-22T12:14:35;7.80;;;2.50;;
61840;SDS011;47773;53.174;6.614;2024-03-22T12:17:04;8.63;;;2.30;;
61840;SDS011;47773;53.174;6.614;2024-03-22T12:19:30;4.72;;;2.28;;
61840;SDS011;47773;53.174;6.614;2024-03-22T12:21:56;7.05;;;2.25;;
61840;SDS011;47773;53.174;6.614;2024-03-22T12:24:22;7.85;;;2.60;;
61840;SDS011;47773;53.174;6.614;2024-03-22T12:26:48;8.60;;;2.50;;
61840;SDS011;47773;53.174;6.614;2024-03-22T12:29:17;5.55;;;2.70;;
61840;SDS011;47773;53.174;6.614;2024-03-22T12:31:43;6.30;;;3.03;;
61840;SDS011;47773;53.174;6.614;2024-03-22T12:34:09;7.10;;;3.58;;
61840;SDS011;47773;53.174;6.614;2024-03-22T12:36:35;12.25;;;3.97;;
61840;SDS011;47773;53.174;6.614;2024-03-22T12:39:01;9.93;;;3.97;;
61840;SDS011;47773;53.174;6.614;2024-03-22T12:41:28;14.30;;;4.28;;
61840;SDS011;47773;53.174;6.614;2024-03-22T12:43:54;12.02;;;4.30;;
61840;SDS011;47773;53.174;6.614;2024-03-22T12:46:20;14.05;;;4.68;;
61840;SDS011;47773;53.174;6.614;2024-03-22T12:48:46;12.68;;;4.15;;
61840;SDS011;47773;53.174;6.614;2024-03-22T12:51:12;12.07;;;5.40;;
61840;SDS011;47773;53.174;6.614;2024-03-22T12:53:37;17.17;;;5.28;;
61840;SDS011;47773;53.174;6.614;2024-03-22T12:56:03;15.23;;;5.13;;
61840;SDS011;47773;53.174;6.614;2024-03-22T12:58:29;16.23;;;5.05;;
61840;SDS011;47773;53.174;6.614;2024-03-22T13:00:56;24.73;;;5.68;;
61840;SDS011;47773;53.174;6.614;2024-03-22T13:03:23;21.35;;;5.00;;
61840;SDS011;47773;53.174;6.614;2024-03-22T13:05:48;20.70;;;5.22;;
61840;SDS011;47773;53.174;6.614;2024-03-22T13:08:14;17.83;;;5.40;;
61840;SDS011;47773;53.174;6.614;2024-03-22T13:10:40;21.27;;;5.13;;
61840;SDS011;47773;53.174;6.614;2024-03-22T13:13:08;27.83;;;5.25;;
61840;SDS011;47773;53.174;6.614;2024-03-22T13:15:34;23.85;;;5.57;;
61840;SDS011;47773;53.174;6.614;2024-03-22T13:18:02;22.73;;;4.97;;
61840;SDS011;47773;53.174;6.614;2024-03-22T13:20:28;19.55;;;4.82;;
61840;SDS011;47773;53.174;6.614;2024-03-22T13:22:53;22.98;;;5.55;;
61840;SDS011;47773;53.174;6.614;2024-03-22T13:25:19;23.35;;;5.35;;
61840;SDS011;47773;53.174;6.614;2024-03-22T13:27:44;24.38;;;4.75;;
61840;SDS011;47773;53.174;6.614;2024-03-22T13:30:10;25.17;;;4.82;;
61840;SDS011;47773;53.174;6.614;2024-03-22T13:32:37;32.45;;;5.22;;
61840;SDS011;47773;53.174;6.614;2024-03-22T13:35:04;21.45;;;5.10;;
61840;SDS011;47773;53.174;6.614;2024-03-22T13:37:31;27.13;;;5.60;;
61840;SDS011;47773;53.174;6.614;2024-03-22T13:39:57;21.27;;;5.00;;
61840;SDS011;47773;53.174;6.614;2024-03-22T13:42:22;22.08;;;5.40;;
61840;SDS011;47773;53.174;6.614;2024-03-22T13:44:49;26.02;;;5.60;;
61840;SDS011;47773;53.174;6.614;2024-03-22T13:47:14;25.08;;;6.22;;
61840;SDS011;47773;53.174;6.614;2024-03-22T13:49:40;31.73;;;7.03;;
61840;SDS011;47773;53.174;6.614;2024-03-22T13:52:07;31.15;;;5.65;;
61840;SDS011;47773;53.174;6.614;2024-03-22T13:54:32;27.70;;;6.30;;
61840;SDS011;47773;53.174;6.614;2024-03-22T13:56:58;29.05;;;6.22;;
61840;SDS011;47773;53.174;6.614;2024-03-22T13:59:25;29.52;;;5.63;;
61840;SDS011;47773;53.174;6.614;2024-03-22T14:01:51;15.88;;;4.57;;
61840;SDS011;47773;53.174;6.614;2024-03-22T14:04:17;35.22;;;4.97;;
61840;SDS011;47773;53.174;6.614;2024-03-22T14:06:44;28.10;;;5.35;;
61840;SDS011;47773;53.174;6.614;2024-03-22T14:09:10;24.85;;;4.22;;
61840;SDS011;47773;53.174;6.614;2024-03-22T14:11:38;25.73;;;3.88;;
61840;SDS011;47773;53.174;6.614;2024-03-22T14:14:04;21.85;;;3.47;;
61840;SDS011;47773;53.174;6.614;2024-03-22T14:16:30;22.27;;;3.47;;
61840;SDS011;47773;53.174;6.614;2024-03-22T14:18:55;36.78;;;5.30;;